Terminal Aerodrome Forecast
Issued by NWS

Home | Current Version | Previous Version | Text Only | Print | Product List | Glossary On
Versions: 1 2 3 4 5 6 7 8 9 10 11 12 13 14 15 16 17 18 19 20 21 22 23 24 25 26 27 28 29 30 31 32 33 34 35 36
000
FTUS44 KHGX 280530
TAFCXO
TAF
KCXO 280530Z 2806/0106 05006KT P6SM SCT035 BKN060
     FM280900 05005KT P6SM SCT025 BKN035 OVC060
     FM281300 06008KT P6SM BKN025 OVC060
     FM281800 07008KT P6SM BKN015 BKN035
     FM010200 08006KT 5SM BR VCSH SCT008 BKN012 OVC025=

USA.gov is the U.S. government's official web portal to all federal, state and local government web resources and services.